Time;durP1;ratioP1;P1;durP2;ratioP2;P2;SDS_P1;SDS_P2;PMS_P1;PMS_P2;Temp;Humidity;BMP_temperature;BMP_pressure;BME280_temperature;BME280_humidity;BME280_pressure;Samples;Min_cycle;Max_cycle;Signal;HPM_P1;HPM_P2
2022/04/11 00:00:56;;;;;;;7.63;5.50;;;3.90;99.90;;;;;;5055498;28;20238;-66
2022/04/11 00:03:23;;;;;;;10.00;6.47;;;3.90;99.90;;;;;;5055565;28;20267;-67
2022/04/11 00:05:50;;;;;;;10.53;6.40;;;3.20;99.90;;;;;;5053615;28;20210;-67
2022/04/11 00:08:19;;;;;;;12.20;6.80;;;3.90;99.90;;;;;;5053492;28;20220;-68
2022/04/11 00:10:47;;;;;;;9.90;5.97;;;3.90;99.90;;;;;;5055330;28;20564;-68
2022/04/11 00:13:13;;;;;;;9.27;6.03;;;3.90;99.90;;;;;;5056118;28;20267;-67
2022/04/11 00:15:42;;;;;;;7.57;5.53;;;3.90;99.90;;;;;;5055321;28;20559;-67
2022/04/11 00:18:09;;;;;;;7.50;5.33;;;3.90;99.90;;;;;;5060637;28;20225;-68
2022/04/11 00:20:37;;;;;;;10.03;5.97;;;3.90;99.90;;;;;;5057569;28;20566;-67
2022/04/11 00:23:05;;;;;;;8.80;5.50;;;3.90;99.90;;;;;;5052390;28;20198;-67
2022/04/11 00:25:32;;;;;;;8.97;5.53;;;3.90;99.90;;;;;;5047006;28;20548;-68
2022/04/11 00:27:58;;;;;;;11.23;6.10;;;3.90;99.90;;;;;;5052925;28;20621;-68
2022/04/11 00:30:25;;;;;;;8.77;5.67;;;3.90;99.90;;;;;;5053958;28;20248;-68
2022/04/11 00:32:53;;;;;;;10.37;5.90;;;3.90;99.90;;;;;;5052438;28;20296;-67
2022/04/11 00:35:20;;;;;;;8.70;5.20;;;4.00;99.90;;;;;;5054948;28;20237;-68
2022/04/11 00:37:47;;;;;;;9.73;5.93;;;3.90;99.90;;;;;;5053342;28;20225;-68
2022/04/11 00:40:14;;;;;;;10.07;6.03;;;3.90;99.90;;;;;;5054658;28;20325;-67
2022/04/11 00:42:41;;;;;;;11.43;5.87;;;3.90;99.90;;;;;;5053927;28;20242;-68
2022/04/11 00:45:09;;;;;;;8.87;5.47;;;3.90;99.90;;;;;;5053515;28;20671;-68
2022/04/11 00:47:36;;;;;;;8.37;5.90;;;3.80;99.90;;;;;;5054128;28;20210;-67
2022/04/11 00:50:07;;;;;;;9.50;5.93;;;3.80;99.90;;;;;;5054884;28;20275;-67
2022/04/11 00:52:39;;;;;;;10.37;5.70;;;3.80;99.90;;;;;;5052410;28;20218;-68
2022/04/11 00:55:07;;;;;;;11.13;6.27;;;3.80;99.90;;;;;;5054294;28;20218;-68
2022/04/11 00:57:34;;;;;;;11.90;6.37;;;3.70;99.90;;;;;;5054362;28;20209;-68
2022/04/11 01:00:02;;;;;;;9.47;6.00;;;3.70;99.90;;;;;;5054905;28;20202;-67
2022/04/11 01:02:29;;;;;;;10.30;6.07;;;3.70;99.90;;;;;;5052206;28;20225;-67
2022/04/11 01:04:56;;;;;;;11.17;6.23;;;3.70;99.90;;;;;;5053947;28;20316;-67
2022/04/11 01:07:24;;;;;;;13.60;6.67;;;3.70;99.90;;;;;;5054057;28;20202;-67
2022/04/11 01:09:51;;;;;;;8.27;6.47;;;3.70;99.90;;;;;;5060556;28;20296;-67
2022/04/11 01:12:18;;;;;;;10.60;6.17;;;3.70;99.90;;;;;;5054065;28;20324;-66
2022/04/11 01:14:45;;;;;;;11.43;6.20;;;3.70;99.90;;;;;;5053137;28;20233;-67
2022/04/11 01:17:12;;;;;;;10.20;6.53;;;3.60;99.90;;;;;;5054073;28;20209;-67
2022/04/11 01:19:38;;;;;;;14.40;6.60;;;3.60;99.90;;;;;;5053838;28;20229;-68
2022/04/11 01:22:07;;;;;;;12.87;7.10;;;3.60;99.90;;;;;;5055216;28;20308;-67
2022/04/11 01:24:36;;;;;;;13.43;7.40;;;3.60;99.90;;;;;;5054491;28;20209;-67
2022/04/11 01:27:03;;;;;;;9.33;5.80;;;3.60;99.90;;;;;;5045400;28;20241;-67
2022/04/11 01:29:30;;;;;;;13.17;7.63;;;3.60;99.90;;;;;;5053565;28;20260;-68
2022/04/11 01:31:57;;;;;;;9.83;5.93;;;3.60;99.90;;;;;;5051800;28;20224;-67
2022/04/11 01:34:24;;;;;;;14.53;6.43;;;3.50;99.90;;;;;;5052941;28;20280;-66
2022/04/11 01:36:50;;;;;;;14.90;6.80;;;3.50;99.90;;;;;;5052093;28;20224;-68
2022/04/11 01:39:19;;;;;;;11.80;7.73;;;3.50;99.90;;;;;;5063419;28;20244;-68
2022/04/11 01:41:45;;;;;;;11.03;7.07;;;3.50;99.90;;;;;;5060128;28;20300;-68
2022/04/11 01:44:12;;;;;;;11.97;6.67;;;3.50;99.90;;;;;;5055792;28;20255;-68
2022/04/11 01:46:39;;;;;;;13.67;7.30;;;3.50;99.90;;;;;;5057218;28;20604;-69
2022/04/11 01:49:06;;;;;;;10.40;6.07;;;3.50;99.90;;;;;;5055508;28;20233;-68
2022/04/11 01:51:33;;;;;;;10.57;6.37;;;3.50;99.90;;;;;;5056205;28;20572;-67
2022/04/11 01:54:00;;;;;;;12.33;7.33;;;3.40;99.90;;;;;;5055516;28;20232;-67
2022/04/11 01:56:28;;;;;;;10.03;7.40;;;3.40;99.90;;;;;;5056291;28;20205;-68
2022/04/11 01:58:55;;;;;;;11.73;7.73;;;3.40;99.90;;;;;;5053227;28;20209;-67
2022/04/11 02:01:22;;;;;;;11.10;6.77;;;3.40;99.90;;;;;;5053998;28;20198;-68
2022/04/11 02:03:49;;;;;;;12.57;7.37;;;3.40;99.90;;;;;;5057267;28;20292;-68
2022/04/11 02:06:16;;;;;;;12.43;6.77;;;3.30;99.90;;;;;;5055307;28;20220;-68
2022/04/11 02:08:43;;;;;;;11.63;7.03;;;3.30;99.90;;;;;;5055326;28;20236;-67
2022/04/11 02:11:11;;;;;;;11.53;6.97;;;3.20;99.90;;;;;;5056716;28;20783;-68
2022/04/11 02:13:39;;;;;;;11.83;7.33;;;3.20;99.90;;;;;;5054397;28;20734;-67
2022/04/11 02:16:06;;;;;;;11.17;7.50;;;3.10;99.90;;;;;;5069277;28;20237;-67
2022/04/11 02:18:33;;;;;;;13.40;7.33;;;3.10;99.90;;;;;;5056334;28;20209;-68
2022/04/11 02:21:00;;;;;;;13.20;8.23;;;3.10;99.90;;;;;;5056453;28;20833;-68
2022/04/11 02:23:26;;;;;;;10.77;7.73;;;3.10;99.90;;;;;;5055258;28;20210;-68
2022/04/11 02:25:53;;;;;;;13.57;7.97;;;3.10;99.90;;;;;;5056144;28;20262;-68
2022/04/11 02:28:21;;;;;;;14.57;7.87;;;3.10;99.90;;;;;;5055161;28;20206;-68
2022/04/11 02:30:49;;;;;;;15.70;8.13;;;3.10;99.90;;;;;;5055597;28;20571;-68
2022/04/11 02:33:16;;;;;;;14.60;8.43;;;3.10;99.90;;;;;;5054641;28;20589;-68
2022/04/11 02:35:43;;;;;;;14.27;7.97;;;3.10;99.90;;;;;;5054939;28;20213;-68
2022/04/11 02:38:10;;;;;;;12.27;8.00;;;3.10;99.90;;;;;;5055659;28;20241;-67
2022/04/11 02:40:37;;;;;;;10.73;7.37;;;3.10;99.90;;;;;;5056082;28;20209;-67
2022/04/11 02:43:04;;;;;;;12.23;8.30;;;3.10;99.90;;;;;;5053123;28;20208;-68
2022/04/11 02:45:30;;;;;;;12.80;7.93;;;3.10;99.90;;;;;;5056086;28;20256;-68
2022/04/11 02:47:59;;;;;;;11.97;7.80;;;3.10;99.90;;;;;;5055008;28;20599;-67
2022/04/11 02:50:25;;;;;;;15.23;8.40;;;3.10;99.90;;;;;;5055181;28;20623;-67
2022/04/11 02:52:52;;;;;;;11.47;8.27;;;3.20;99.90;;;;;;5061275;28;20345;-68
2022/04/11 02:55:21;;;;;;;11.70;7.83;;;3.20;99.90;;;;;;5054581;28;20214;-68
2022/04/11 02:57:47;;;;;;;15.00;8.10;;;3.20;99.90;;;;;;5053883;28;20214;-67
2022/04/11 03:00:15;;;;;;;11.80;8.07;;;3.10;99.90;;;;;;5055295;28;20245;-67
2022/04/11 03:02:43;;;;;;;12.83;8.50;;;3.10;99.90;;;;;;5040235;28;20305;-67
2022/04/11 03:05:11;;;;;;;15.10;8.87;;;3.10;99.90;;;;;;5054263;28;20201;-68
2022/04/11 03:07:38;;;;;;;13.13;8.20;;;3.10;99.90;;;;;;5060335;28;20303;-68
2022/04/11 03:10:06;;;;;;;13.20;8.60;;;3.10;99.90;;;;;;5075253;28;20241;-67
2022/04/11 03:12:33;;;;;;;12.80;8.63;;;3.00;99.90;;;;;;5065277;28;20257;-67
2022/04/11 03:15:00;;;;;;;14.63;8.63;;;3.00;99.90;;;;;;5054161;28;20297;-68
2022/04/11 03:17:27;;;;;;;16.77;9.20;;;2.90;99.90;;;;;;5068544;28;20209;-68
2022/04/11 03:19:54;;;;;;;12.23;8.73;;;2.90;99.90;;;;;;5054888;28;20329;-69
2022/04/11 03:22:22;;;;;;;11.73;8.33;;;2.90;99.90;;;;;;5054917;28;20253;-68
2022/04/11 03:24:49;;;;;;;13.07;8.67;;;2.90;99.90;;;;;;5040108;28;20202;-67
2022/04/11 03:27:16;;;;;;;13.40;7.67;;;2.80;99.90;;;;;;5046558;28;20256;-68
2022/04/11 03:29:43;;;;;;;15.10;8.83;;;2.80;99.90;;;;;;5055248;28;20241;-67
2022/04/11 03:32:10;;;;;;;13.97;8.87;;;2.80;99.90;;;;;;5053350;28;20718;-67
2022/04/11 03:34:37;;;;;;;14.33;8.37;;;2.80;99.90;;;;;;5053839;28;20216;-67
2022/04/11 03:37:05;;;;;;;17.90;9.23;;;2.70;99.90;;;;;;5054982;28;20198;-68
2022/04/11 03:39:33;;;;;;;15.37;8.63;;;2.80;99.90;;;;;;5064472;28;20244;-68
2022/04/11 03:42:00;;;;;;;14.40;8.63;;;2.80;99.90;;;;;;5056350;28;20209;-67
2022/04/11 03:44:27;;;;;;;14.40;8.23;;;2.70;99.90;;;;;;5053765;28;20197;-68
2022/04/11 03:46:53;;;;;;;17.67;9.33;;;2.70;99.90;;;;;;5054716;28;20210;-68
2022/04/11 03:49:20;;;;;;;12.43;8.90;;;2.60;99.90;;;;;;5054819;28;20677;-67
2022/04/11 03:51:47;;;;;;;13.33;9.30;;;2.60;99.90;;;;;;5054338;28;20226;-67
2022/04/11 03:54:14;;;;;;;15.47;8.97;;;2.60;99.90;;;;;;5053712;28;20208;-67
2022/04/11 03:56:42;;;;;;;13.60;8.00;;;2.60;99.90;;;;;;5048876;28;20205;-68
2022/04/11 03:59:09;;;;;;;11.27;8.37;;;2.60;99.90;;;;;;5053064;28;20618;-68
2022/04/11 04:01:36;;;;;;;16.10;9.23;;;2.50;99.90;;;;;;5052533;28;20214;-68
2022/04/11 04:04:03;;;;;;;14.83;9.20;;;2.50;99.90;;;;;;5052880;28;20650;-67
2022/04/11 04:06:30;;;;;;;11.67;8.50;;;2.50;99.90;;;;;;5053932;28;20212;-68
2022/04/11 04:08:57;;;;;;;14.60;8.30;;;2.50;99.90;;;;;;5068677;28;20232;-68
2022/04/11 04:11:24;;;;;;;13.63;9.37;;;2.60;99.90;;;;;;5053323;28;20252;-68
2022/04/11 04:13:52;;;;;;;13.87;9.77;;;2.60;99.90;;;;;;5052391;28;20225;-69
2022/04/11 04:16:19;;;;;;;15.03;8.80;;;2.60;99.90;;;;;;5040652;28;20208;-67
2022/04/11 04:18:46;;;;;;;13.63;9.07;;;2.60;99.90;;;;;;5053817;28;20738;-68
2022/04/11 04:21:13;;;;;;;16.43;9.90;;;2.60;99.90;;;;;;5053436;28;20695;-67
2022/04/11 04:23:40;;;;;;;13.43;9.33;;;2.60;99.90;;;;;;5051933;28;20298;-68
2022/04/11 04:26:07;;;;;;;12.87;8.33;;;2.60;99.90;;;;;;5052839;28;20255;-67
2022/04/11 04:28:34;;;;;;;16.20;9.87;;;2.60;99.90;;;;;;5052383;28;20202;-67
2022/04/11 04:31:02;;;;;;;17.53;9.53;;;2.60;99.90;;;;;;5053414;28;20282;-68
2022/04/11 04:33:31;;;;;;;15.37;9.70;;;2.60;99.90;;;;;;5052226;28;20656;-67
2022/04/11 04:35:58;;;;;;;15.20;9.60;;;2.60;99.90;;;;;;5053907;28;20210;-67
2022/04/11 04:38:25;;;;;;;15.57;9.30;;;2.70;99.90;;;;;;5055464;28;20284;-68
2022/04/11 04:40:51;;;;;;;16.43;9.63;;;2.70;99.90;;;;;;5053720;28;20202;-67
2022/04/11 04:43:18;;;;;;;12.67;9.43;;;2.70;99.90;;;;;;5050075;28;20198;-67
2022/04/11 04:45:46;;;;;;;14.20;10.00;;;2.80;99.90;;;;;;5052683;28;20300;-66
2022/04/11 04:48:14;;;;;;;15.07;9.57;;;2.80;99.90;;;;;;5053493;28;20661;-67
2022/04/11 04:50:41;;;;;;;14.27;8.87;;;2.90;99.90;;;;;;5053002;28;20229;-68
2022/04/11 04:53:08;;;;;;;16.00;9.53;;;2.90;99.90;;;;;;5052523;28;20225;-68
2022/04/11 04:55:35;;;;;;;12.20;8.63;;;3.00;99.90;;;;;;5052360;28;20296;-67
2022/04/11 04:58:01;;;;;;;13.03;9.10;;;3.10;99.90;;;;;;5051697;28;20205;-68
2022/04/11 05:00:28;;;;;;;15.30;9.00;;;3.10;99.90;;;;;;5049054;28;20719;-67
2022/04/11 05:02:55;;;;;;;13.93;9.13;;;3.20;99.90;;;;;;5049808;28;20236;-67
2022/04/11 05:05:24;;;;;;;14.17;9.47;;;3.40;99.90;;;;;;5052822;28;20209;-67
2022/04/11 05:07:50;;;;;;;14.23;9.30;;;3.40;99.90;;;;;;5053208;28;20206;-68
2022/04/11 05:10:17;;;;;;;14.70;9.30;;;3.40;99.90;;;;;;5053123;28;20320;-67
2022/04/11 05:12:45;;;;;;;13.17;9.07;;;3.60;99.90;;;;;;5058665;28;20264;-68
2022/04/11 05:15:13;;;;;;;13.47;9.10;;;3.60;99.90;;;;;;5052293;28;20209;-68
2022/04/11 05:17:40;;;;;;;17.07;8.63;;;3.60;99.90;;;;;;5061937;28;20248;-68
2022/04/11 05:20:09;;;;;;;12.00;8.47;;;3.70;99.90;;;;;;5063533;28;20288;-69
2022/04/11 05:22:37;;;;;;;12.27;8.20;;;3.70;99.90;;;;;;5049582;28;20579;-68
2022/04/11 05:25:05;;;;;;;12.67;8.77;;;3.80;99.90;;;;;;5054112;28;20241;-67
2022/04/11 05:27:33;;;;;;;14.47;8.73;;;3.80;99.90;;;;;;5054484;28;20218;-68
2022/04/11 05:29:59;;;;;;;15.53;8.07;;;3.80;99.90;;;;;;5067827;28;20301;-68
2022/04/11 05:32:26;;;;;;;11.87;8.30;;;3.90;99.90;;;;;;5049604;28;20256;-68
2022/04/11 05:34:53;;;;;;;13.77;9.03;;;3.90;99.90;;;;;;5050838;28;20213;-69
2022/04/11 05:37:20;;;;;;;15.03;8.77;;;4.00;99.90;;;;;;5041294;28;20233;-68
2022/04/11 05:39:48;;;;;;;15.10;8.97;;;4.10;99.90;;;;;;5045579;28;20317;-68
2022/04/11 05:42:15;;;;;;;14.13;9.40;;;4.20;99.90;;;;;;5047961;28;20239;-68
2022/04/11 05:44:42;;;;;;;11.73;8.20;;;4.30;99.90;;;;;;5036309;28;20292;-67
2022/04/11 05:47:09;;;;;;;13.20;8.13;;;4.40;99.90;;;;;;5022316;28;20237;-69
2022/04/11 05:49:37;;;;;;;14.77;9.47;;;4.50;99.90;;;;;;5013622;28;20215;-68
2022/04/11 05:52:05;;;;;;;12.17;9.43;;;4.50;99.90;;;;;;5012746;28;20656;-67
2022/04/11 05:54:36;;;;;;;15.13;9.07;;;4.50;99.90;;;;;;5013764;28;20219;-70
2022/04/11 05:57:05;;;;;;;14.63;9.60;;;4.50;99.90;;;;;;5009543;28;20215;-67
2022/04/11 05:59:32;;;;;;;14.37;9.67;;;4.50;99.90;;;;;;5011620;28;20653;-67
2022/04/11 06:01:59;;;;;;;16.57;9.67;;;4.50;99.90;;;;;;5011936;28;20210;-69
2022/04/11 06:04:25;;;;;;;12.90;10.17;;;4.50;99.90;;;;;;5010253;28;20219;-70
2022/04/11 06:06:52;;;;;;;15.33;10.50;;;4.60;99.90;;;;;;5013531;28;20239;-68
2022/04/11 06:09:19;;;;;;;15.00;10.00;;;4.60;99.90;;;;;;5007804;28;20227;-69
2022/04/11 06:11:46;;;;;;;15.03;10.67;;;4.70;99.90;;;;;;5011796;28;20216;-68
2022/04/11 06:14:14;;;;;;;15.53;10.63;;;4.80;99.90;;;;;;5013111;28;20243;-69
2022/04/11 06:16:41;;;;;;;14.00;10.40;;;4.90;99.90;;;;;;5012815;28;20294;-69
2022/04/11 06:19:08;;;;;;;18.13;11.87;;;4.90;99.90;;;;;;4999554;28;20211;-70
2022/04/11 06:21:35;;;;;;;15.80;10.70;;;4.90;99.90;;;;;;5012249;28;20708;-69
2022/04/11 06:24:02;;;;;;;13.73;11.10;;;5.00;99.90;;;;;;5000819;28;20644;-69
2022/04/11 06:26:28;;;;;;;19.63;11.27;;;5.00;99.90;;;;;;5011480;28;20203;-69
2022/04/11 06:28:55;;;;;;;15.80;11.87;;;5.00;99.90;;;;;;5017245;28;20219;-67
2022/04/11 06:31:24;;;;;;;15.47;11.93;;;5.00;99.90;;;;;;5017558;28;20292;-66
2022/04/11 06:33:50;;;;;;;18.97;11.93;;;5.00;99.90;;;;;;5010537;28;20708;-66
2022/04/11 06:36:17;;;;;;;21.83;12.30;;;5.10;99.90;;;;;;5013954;28;20298;-67
2022/04/11 06:38:44;;;;;;;16.87;12.17;;;5.10;99.90;;;;;;5012398;28;20227;-68
2022/04/11 06:41:11;;;;;;;17.10;12.83;;;5.10;99.90;;;;;;5007520;28;20561;-67
2022/04/11 06:43:38;;;;;;;18.83;12.93;;;5.20;99.90;;;;;;5014755;28;20207;-68
2022/04/11 06:46:05;;;;;;;18.33;13.20;;;5.20;99.90;;;;;;5015966;28;20310;-70
2022/04/11 06:48:33;;;;;;;19.73;13.40;;;5.20;99.90;;;;;;5016596;28;20238;-71
2022/04/11 06:51:00;;;;;;;21.27;13.00;;;5.20;99.90;;;;;;5017028;28;20216;-68
2022/04/11 06:53:27;;;;;;;17.50;12.80;;;5.20;99.90;;;;;;5017356;28;20234;-70
2022/04/11 06:55:53;;;;;;;18.60;12.60;;;5.20;99.90;;;;;;5015367;28;20655;-69
2022/04/11 06:58:20;;;;;;;18.13;11.87;;;5.30;99.90;;;;;;5014877;28;20302;-67
2022/04/11 07:00:47;;;;;;;18.53;11.33;;;5.40;99.90;;;;;;5013621;28;20203;-69
2022/04/11 07:03:14;;;;;;;16.10;11.33;;;5.40;99.90;;;;;;5015652;28;20215;-69
2022/04/11 07:05:43;;;;;;;19.20;12.57;;;5.40;99.90;;;;;;5017825;28;20237;-70
2022/04/11 07:08:10;;;;;;;14.87;11.07;;;5.40;99.90;;;;;;5014581;28;20219;-71
2022/04/11 07:10:40;;;;;;;16.63;11.20;;;5.50;99.90;;;;;;5020376;28;20213;-72
2022/04/11 07:13:08;;;;;;;15.77;11.13;;;5.60;99.90;;;;;;5012661;28;20670;-70
2022/04/11 07:15:35;;;;;;;17.03;11.03;;;5.80;99.90;;;;;;5016679;28;20568;-71
2022/04/11 07:18:02;;;;;;;14.50;9.23;;;5.90;99.90;;;;;;5015234;28;20533;-70
2022/04/11 07:20:28;;;;;;;18.50;10.30;;;6.10;99.90;;;;;;5019033;28;20207;-71
2022/04/11 07:22:57;;;;;;;16.23;9.87;;;6.20;99.90;;;;;;5018471;28;20660;-71
2022/04/11 07:25:24;;;;;;;17.07;10.30;;;6.20;99.90;;;;;;5015330;28;20238;-70
2022/04/11 07:27:51;;;;;;;15.57;8.93;;;6.20;99.90;;;;;;5015777;28;20207;-70
2022/04/11 07:30:18;;;;;;;12.73;10.53;;;6.40;99.90;;;;;;5006316;28;20586;-70
2022/04/11 07:32:45;;;;;;;13.80;10.17;;;6.60;99.90;;;;;;5010051;28;20657;-70
2022/04/11 07:35:12;;;;;;;14.43;10.37;;;6.70;99.90;;;;;;5009566;28;20566;-70
2022/04/11 07:37:39;;;;;;;15.00;10.80;;;6.80;99.90;;;;;;5010424;28;20239;-69
2022/04/11 07:40:09;;;;;;;15.10;10.27;;;6.80;99.90;;;;;;5010028;28;20316;-69
2022/04/11 07:42:36;;;;;;;13.00;9.90;;;6.90;99.90;;;;;;5000190;28;20298;-70
2022/04/11 07:45:03;;;;;;;14.63;11.43;;;7.00;99.90;;;;;;5010298;28;20230;-71
2022/04/11 07:47:30;;;;;;;14.27;10.03;;;7.20;99.90;;;;;;5016870;28;20577;-71
2022/04/11 07:49:57;;;;;;;15.40;10.07;;;7.20;99.90;;;;;;5015281;28;20302;-70
2022/04/11 07:52:25;;;;;;;11.90;9.40;;;7.30;99.90;;;;;;5013589;28;20246;-70
2022/04/11 07:54:52;;;;;;;14.37;10.27;;;7.50;99.90;;;;;;5015785;28;20688;-71
2022/04/11 07:57:21;;;;;;;13.13;10.00;;;7.70;99.90;;;;;;5016816;28;20232;-70
2022/04/11 07:59:48;;;;;;;12.77;9.23;;;7.80;99.90;;;;;;5015986;28;20870;-71
2022/04/11 08:02:16;;;;;;;12.73;9.23;;;7.90;99.90;;;;;;5015870;28;20206;-71
2022/04/11 08:04:43;;;;;;;10.40;9.03;;;7.90;99.90;;;;;;5003976;28;20215;-69
2022/04/11 08:07:10;;;;;;;13.87;9.27;;;8.00;99.90;;;;;;5014747;28;20242;-72
2022/04/11 08:09:36;;;;;;;11.77;8.03;;;8.20;99.90;;;;;;5007886;28;20211;-69
2022/04/11 08:12:05;;;;;;;9.70;7.17;;;8.30;99.90;;;;;;5015689;28;20212;-70
2022/04/11 08:14:34;;;;;;;11.83;8.23;;;8.30;99.90;;;;;;5013504;28;20278;-71
2022/04/11 08:17:03;;;;;;;11.43;8.43;;;8.60;99.90;;;;;;5004206;28;20638;-70
2022/04/11 08:19:30;;;;;;;10.63;8.27;;;8.90;99.90;;;;;;4999349;28;20206;-70
2022/04/11 08:21:57;;;;;;;13.17;8.03;;;9.00;99.90;;;;;;5002356;28;20238;-71
2022/04/11 08:24:24;;;;;;;10.33;7.33;;;9.20;99.90;;;;;;4998804;28;20219;-73
2022/04/11 08:26:51;;;;;;;11.50;8.10;;;9.20;99.90;;;;;;4996491;28;20207;-70
2022/04/11 08:29:18;;;;;;;12.03;9.33;;;8.90;99.90;;;;;;4996108;28;20282;-69
2022/04/11 08:31:46;;;;;;;15.03;9.10;;;8.80;99.90;;;;;;5008260;28;20214;-71
2022/04/11 08:34:13;;;;;;;11.90;8.83;;;8.80;99.90;;;;;;5002772;28;20274;-70
2022/04/11 08:36:40;;;;;;;8.93;8.03;;;8.80;99.90;;;;;;5004764;28;22438;-71
2022/04/11 08:39:07;;;;;;;13.57;9.70;;;8.80;99.90;;;;;;5008569;28;20266;-70
2022/04/11 08:41:36;;;;;;;15.67;10.97;;;8.80;99.90;;;;;;5007417;28;20250;-71
2022/04/11 08:44:05;;;;;;;13.03;10.97;;;8.80;99.90;;;;;;4998639;28;20964;-70
2022/04/11 08:46:34;;;;;;;13.70;10.77;;;8.70;99.90;;;;;;4995307;28;20216;-70
2022/04/11 08:49:04;;;;;;;14.53;10.97;;;8.70;99.90;;;;;;5008021;28;20218;-70
2022/04/11 08:51:32;;;;;;;15.27;11.17;;;8.80;99.90;;;;;;5001020;28;20317;-70
2022/04/11 08:54:00;;;;;;;12.73;10.47;;;8.90;99.90;;;;;;5000217;28;20215;-71
2022/04/11 08:56:27;;;;;;;15.50;10.10;;;9.10;99.90;;;;;;4995400;28;20230;-71
2022/04/11 08:58:54;;;;;;;12.33;10.23;;;9.20;99.90;;;;;;5009384;28;20239;-72
2022/04/11 09:01:21;;;;;;;13.73;9.00;;;9.50;99.90;;;;;;5011961;28;20211;-71
2022/04/11 09:03:48;;;;;;;12.00;10.27;;;9.80;99.90;;;;;;5011921;28;20241;-71
2022/04/11 09:06:18;;;;;;;11.27;8.50;;;10.20;99.90;;;;;;5005881;28;20656;-71
2022/04/11 09:08:51;;;;;;;8.63;7.83;;;10.50;99.90;;;;;;5010361;28;20669;-71
2022/04/11 09:11:29;;;;;;;11.43;8.23;;;10.70;99.90;;;;;;5009290;28;20627;-70
2022/04/11 09:13:57;;;;;;;7.43;6.17;;;10.90;98.90;;;;;;5009788;28;20582;-71
2022/04/11 09:16:24;;;;;;;9.83;5.60;;;10.80;97.40;;;;;;5010985;28;20215;-71
2022/04/11 09:18:52;;;;;;;9.00;5.40;;;10.60;97.00;;;;;;5013400;28;20238;-70
2022/04/11 09:21:22;;;;;;;10.10;4.77;;;10.40;96.30;;;;;;5012087;28;20230;-71
2022/04/11 09:23:50;;;;;;;7.80;4.67;;;10.10;95.30;;;;;;5013275;28;20686;-72
2022/04/11 09:26:19;;;;;;;7.33;5.47;;;9.80;95.00;;;;;;5004132;28;20203;-71
2022/04/11 09:28:59;;;;;;;8.17;4.40;;;9.70;95.80;;;;;;5007689;28;20211;-70
2022/04/11 09:31:26;;;;;;;9.40;5.03;;;9.80;96.80;;;;;;5012647;28;20215;-71
2022/04/11 09:33:53;;;;;;;7.07;4.77;;;9.90;96.40;;;;;;5009513;28;20226;-71
2022/04/11 09:36:22;;;;;;;6.23;4.80;;;10.20;95.70;;;;;;5007456;28;20645;-70
2022/04/11 09:38:58;;;;;;;7.50;4.80;;;10.50;95.10;;;;;;5007685;28;20307;-70
2022/04/11 09:41:29;;;;;;;8.13;4.80;;;10.70;94.80;;;;;;5012835;28;20202;-70
2022/04/11 09:43:57;;;;;;;7.87;4.00;;;10.90;94.80;;;;;;5012560;28;20285;-69
2022/04/11 09:46:24;;;;;;;7.23;4.23;;;11.00;93.40;;;;;;5012486;28;20286;-70
2022/04/11 09:48:54;;;;;;;5.70;4.27;;;11.20;92.90;;;;;;5012820;28;20583;-71
2022/04/11 09:51:22;;;;;;;4.30;3.33;;;11.30;91.40;;;;;;5013066;28;20211;-71
2022/04/11 09:53:49;;;;;;;6.90;3.60;;;11.70;91.40;;;;;;5011715;28;20318;-72
2022/04/11 09:56:19;;;;;;;6.80;4.10;;;12.00;89.70;;;;;;5013277;28;20207;-71
2022/04/11 09:58:48;;;;;;;5.10;3.60;;;12.40;87.90;;;;;;5006734;28;20684;-71
2022/04/11 10:01:16;;;;;;;6.70;3.47;;;12.70;85.20;;;;;;5011229;28;20239;-71
2022/04/11 10:03:43;;;;;;;7.27;4.43;;;12.90;83.20;;;;;;5007683;28;20547;-70
2022/04/11 10:06:13;;;;;;;8.73;4.40;;;13.20;81.90;;;;;;5015559;28;20215;-72
2022/04/11 10:08:43;;;;;;;7.27;4.00;;;13.60;80.00;;;;;;5001733;28;20212;-71
2022/04/11 10:11:11;;;;;;;6.50;3.90;;;14.00;78.90;;;;;;5011023;28;20199;-71
2022/04/11 10:13:39;;;;;;;7.23;3.57;;;14.30;75.30;;;;;;5016583;28;20298;-71
2022/04/11 10:16:08;;;;;;;4.57;3.03;;;14.20;72.30;;;;;;5008672;28;20219;-71
2022/04/11 10:18:36;;;;;;;5.30;3.60;;;14.30;71.30;;;;;;5016740;28;20298;-73
2022/04/11 10:21:07;;;;;;;7.20;3.70;;;14.40;71.10;;;;;;5014347;28;20716;-71
2022/04/11 10:23:39;;;;;;;6.70;3.57;;;14.30;68.80;;;;;;5016451;28;20203;-71
2022/04/11 10:26:17;;;;;;;6.83;3.37;;;14.20;68.70;;;;;;5014208;28;20243;-73
2022/04/11 10:28:45;;;;;;;6.53;3.30;;;14.20;70.50;;;;;;5011443;28;20602;-71
2022/04/11 10:31:14;;;;;;;5.40;3.40;;;14.40;69.80;;;;;;5014426;28;20212;-71
2022/04/11 10:33:46;;;;;;;3.37;2.70;;;14.60;66.90;;;;;;5014079;28;20211;-71
2022/04/11 10:36:30;;;;;;;4.40;3.70;;;14.80;65.30;;;;;;5016278;28;20207;-72
2022/04/11 10:39:24;;;;;;;3.20;2.53;;;14.90;64.70;;;;;;5015856;28;20329;-71
2022/04/11 10:42:19;;;;;;;5.43;3.60;;;15.20;63.20;;;;;;5015587;28;20261;-71
2022/04/11 10:44:48;;;;;;;8.33;3.30;;;15.30;63.30;;;;;;5016070;28;20655;-71
2022/04/11 10:47:26;;;;;;;3.23;2.93;;;15.50;61.20;;;;;;5015889;28;20211;-71
2022/04/11 10:50:36;;;;;;;4.57;3.40;;;15.30;60.50;;;;;;5015016;28;20265;-72
2022/04/11 10:53:15;;;;;;;4.37;3.30;;;14.80;60.50;;;;;;5016075;28;20394;-72
2022/04/11 10:56:02;;;;;;;5.80;2.20;;;14.20;62.30;;;;;;5009054;28;20334;-73
2022/04/11 10:58:48;;;;;;;3.17;2.10;;;13.60;64.90;;;;;;5014267;28;20223;-71
2022/04/11 11:01:37;;;;;;;2.43;1.90;;;12.90;67.40;;;;;;5015089;28;20207;-72
2022/04/11 11:04:17;;;;;;;3.90;2.37;;;12.50;69.40;;;;;;5015563;28;20199;-71
2022/04/11 11:06:44;;;;;;;3.63;2.10;;;12.10;71.00;;;;;;5015128;28;20203;-72
2022/04/11 11:09:20;;;;;;;3.17;2.50;;;11.80;72.50;;;;;;5015337;28;20652;-71
2022/04/11 11:11:49;;;;;;;3.03;2.37;;;11.40;74.50;;;;;;5008195;28;20227;-70
2022/04/11 11:14:41;;;;;;;5.23;2.63;;;11.10;75.90;;;;;;5015024;28;20589;-72
2022/04/11 11:17:10;;;;;;;3.73;2.70;;;10.80;77.90;;;;;;4986925;28;20294;-72
2022/04/11 11:20:07;;;;;;;4.30;2.47;;;10.50;79.30;;;;;;5013286;28;20265;-72
2022/04/11 11:22:35;;;;;;;2.63;1.87;;;10.40;80.20;;;;;;5015107;28;20670;-71
2022/04/11 11:25:17;;;;;;;2.30;1.70;;;10.30;82.10;;;;;;5015435;28;20298;-71
2022/04/11 11:27:46;;;;;;;3.80;2.00;;;10.10;81.00;;;;;;5013913;28;20265;-71
2022/04/11 11:30:15;;;;;;;2.70;1.90;;;10.00;81.10;;;;;;5006886;28;20211;-72
2022/04/11 11:32:43;;;;;;;1.93;1.50;;;9.90;82.90;;;;;;5014900;28;20576;-71
2022/04/11 11:35:11;;;;;;;3.73;1.80;;;9.80;82.40;;;;;;5007278;28;20282;-72
2022/04/11 11:37:38;;;;;;;4.17;2.07;;;9.70;82.60;;;;;;5014267;28;20254;-71
2022/04/11 11:40:09;;;;;;;5.00;2.23;;;9.50;82.90;;;;;;5009295;28;20266;-73
2022/04/11 11:42:37;;;;;;;4.93;2.87;;;9.40;84.30;;;;;;5015431;28;20584;-70
2022/04/11 11:45:06;;;;;;;5.03;2.40;;;9.40;86.10;;;;;;5015416;28;20253;-72
2022/04/11 11:47:35;;;;;;;2.50;2.20;;;9.60;86.90;;;;;;5015390;28;20215;-71
2022/04/11 11:50:05;;;;;;;6.20;2.17;;;9.90;86.50;;;;;;5014678;28;20656;-70
2022/04/11 11:52:32;;;;;;;5.40;2.53;;;10.20;85.00;;;;;;5015170;28;20234;-71
2022/04/11 11:55:00;;;;;;;4.97;2.93;;;10.60;84.60;;;;;;5014535;28;20238;-72
2022/04/11 11:57:28;;;;;;;5.97;2.30;;;10.90;83.10;;;;;;5011229;28;20207;-72
2022/04/11 11:59:57;;;;;;;5.10;2.77;;;11.20;81.10;;;;;;5009596;28;20261;-70
2022/04/11 12:05:21;;;;;;;4.30;2.40;;;11.40;78.60;;;;;;5002369;28;20195;-70
2022/04/11 12:07:49;;;;;;;6.27;2.40;;;11.40;76.20;;;;;;5004440;28;20211;-69
2022/04/11 12:10:18;;;;;;;3.53;2.30;;;11.30;76.10;;;;;;5010269;28;20251;-70
2022/04/11 12:12:46;;;;;;;4.67;2.23;;;11.30;76.10;;;;;;5004538;28;20258;-71
2022/04/11 12:15:14;;;;;;;3.00;2.33;;;11.50;76.10;;;;;;5000994;28;20242;-71
2022/04/11 12:17:43;;;;;;;4.63;3.23;;;11.70;76.10;;;;;;5010824;28;20203;-73
2022/04/11 12:20:13;;;;;;;5.37;2.87;;;12.20;77.00;;;;;;5014471;28;20211;-71
2022/04/11 12:22:42;;;;;;;4.70;3.17;;;12.70;75.60;;;;;;5011795;28;20303;-71
2022/04/11 12:25:23;;;;;;;5.53;2.20;;;13.40;73.50;;;;;;5013737;28;20234;-71
2022/04/11 12:27:50;;;;;;;4.67;2.20;;;13.80;71.20;;;;;;5007399;28;20234;-73
2022/04/11 12:30:17;;;;;;;2.77;1.87;;;13.90;66.70;;;;;;5011564;28;20266;-73
2022/04/11 12:32:44;;;;;;;1.97;1.53;;;14.00;65.50;;;;;;5010730;28;20207;-68
2022/04/11 12:35:16;;;;;;;3.30;1.87;;;14.00;64.20;;;;;;5013789;28;20715;-72
2022/04/11 12:37:54;;;;;;;2.93;1.80;;;13.80;61.30;;;;;;5015316;28;20212;-71
2022/04/11 12:40:21;;;;;;;6.13;2.10;;;13.60;61.00;;;;;;5011207;28;20271;-69
2022/04/11 12:42:48;;;;;;;6.37;2.10;;;13.30;60.40;;;;;;5012751;28;20247;-70
2022/04/11 12:45:15;;;;;;;4.37;2.00;;;13.10;60.70;;;;;;5012238;28;20230;-72
2022/04/11 12:48:05;;;;;;;2.87;1.90;;;12.80;60.10;;;;;;5012887;28;20243;-71
2022/04/11 12:50:34;;;;;;;3.40;1.63;;;12.70;61.70;;;;;;5012690;28;20207;-70
2022/04/11 12:53:03;;;;;;;1.73;1.40;;;12.70;61.20;;;;;;5011926;28;20245;-71
2022/04/11 12:55:31;;;;;;;3.57;1.70;;;12.80;61.20;;;;;;5012694;28;20223;-71